Terminal Aerodrome Forecast
Issued by NWS Twin Cities, MN

Home | Current Version | Previous Version | Text Only | Print | Product List | Glossary Off
Versions: 1 2 3 4 5 6 7 8 9 10 11 12 13 14 15 16 17 18

277
FTUS43 KMPX 201729
TAFEAU
TAF
KEAU 201729Z 2018/2118 30008KT P6SM SCT050 SCT100
     FM210100 31004KT P6SM FEW200
     FM211000 00000KT 3SM BR FEW200
     FM211300 VRB03KT P6SM FEW200=

USA.gov is the U.S. government's official web portal to all federal, state and local government web resources and services.